Addison Township, MI

9:28 AM EDT on October 31, 2014 (GMT -0400)
Village of Leonard | Change Station
CLOSE
Current Station
Personal Weather Station
Location: Leonard, MI
Elevation: 1014 ft
Nearby Weather Stations

Elev 1014 ft 42.87 °N, 83.15 °W | Updated 12 seconds ago

Rain
Rain
42.3 °F
Feels Like 42 °F
N
0.0
Wind Variable Wind from WNW
Gusts 0.0 mph

Today
High -- | Low -- °F
--% Chance of Precip.
Yesterday
High -- | Low -- °F
Precip. -- in
8:05 AM 6:26 PM
First Quarter, 55% visible
Pressure 29.89 in
Visibility 4.0 miles
Clouds Scattered Clouds 1200 ft
Overcast 2000 ft
Windchill 42 °F
Dew Point 42 °F
Humidity 98%
Rainfall 0.04 in
Snow Depth Not available.
UV 0 out of 12
Pollen .10 out of 12
Air Quality Not available.
Flu Activity Not available.
METAR KD95 311313Z AUTO 00000KT 4SM -RA SCT012 OVC020 06/05 A2989 RMK AO2 P0001 T00550045

More Conditions Fewer Conditions

Pressure 29.89 in
Visibility 4.0 miles
Clouds Scattered Clouds 1200 ft
Overcast 2000 ft
Windchill 42 °F
Dew Point 42 °F
Humidity 98%
Rainfall 0.04 in
Snow Depth Not available.
UV 0 out of 12
Pollen .10 out of 12
Air Quality Not available.
Flu Activity Not available.
METAR KD95 311313Z AUTO 00000KT 4SM -RA SCT012 OVC020 06/05 A2989 RMK AO2 P0001 T00550045

More Conditions Fewer Conditions

10-Day Weather Forecast

Almanac

Astronomy

Oct. 31, 2014 Rise Set
Actual Time
Civil Twilight
Nautical Twilight
Astronomical Twilight
Moon
Length of Visible Light
Length of Day
Tomorrow will be .
, % of the Moon is Illuminated

Today's Extremes

State Highs State Lows

Community

WunderPhotos

Upload Photos

1,766,608 photos uploaded!

WunderBlogs® & News

Nearby

Air Quality

  Air Quality AQ Index Pollutant
Not available.

Snow Depth

Station Depth Elevation

Earthquake Activity

City Distance Mag. Time & Date
Minimum magnitude displayed is 2.5.

Coastal Water Temperatures

Place Temperature

Nearby Weather Stations